Kezdőlap
METAR-TAF:

METAR-TAF

Repülőterek :

Várna, Bulgária

földrajzi szélesség: 43-12N, földrajzi hosszúság: 027-55E, magasság: 41 m

Jelenlegi meteorológiai megfigyelések

A jelentés 30 perccel ezelõtt készült, 17:30 UTC
Kelet-délkeleti szél 3 kt
Hőmérséklet 3°C
Páratartalom 81%
Légköri nyomás 1024 hPa
Látótávolság 10 km, vagy több
felhőtlen 1500 m magasságban, és nincs gomolyfelhõ

METAR: LBWN 061730Z 12003KT CAVOK 03/00 Q1024 NOSIG

Idő: 20:00 (18:00 UTC)

Előrejelzés

A jelentés 1 órával és 0 perccel ezelõtt készült, 17:00 UTC
Az előrejelzés 06-én 18 óra UTC és 07-én 18 óra UTC között érvényes
Különbözõ irányokból fújó szél 4 kt
Látótávolság 10 km, vagy több
felhőtlen 1500 m magasságban, és nincs gomolyfelhõ
07-én 02 óra UTC és 07-én 05 óra UTC között ideiglenes
Látótávolság: 5000 m
Párásság

TAF: LBWN 061700Z 0618/0718 VRB04KT CAVOK TEMPO 0702/0705 5000 BR

Meteorológiai megfigyelések és előrejelzések több, mint 4000 repülőtéren (METAR és TAF jelentéseket).

A térképen piros és sárga pontok jelzik az elérhető meteorológiai állomásokat.

Mozgassa az egeret a pont fölött, hogy megjelenjen az állomás neve.

Azután kattintson az időjárási megfigyelések és előrejelzések megtekintéséhez.

A térkép megváltoztatása: kattintson a fekete keresztel jelölt zöld gombra ráközelítéshez, a vonallal jelölt zöld gombra távolításhoz, vagy a zöld nyilakra a szomszédos térképek eléréséhez.


METAR-TAF: